createdAt,value
2022-08-20T00:05:01.254Z,52.9
2022-08-20T00:10:01.120Z,52.7
2022-08-20T00:15:01.193Z,52.5
2022-08-20T00:25:01.184Z,53.0
2022-08-20T00:30:01.116Z,54.7
2022-08-20T00:35:01.255Z,56.0
2022-08-20T00:40:01.185Z,55.5
2022-08-20T00:45:01.254Z,54.8
2022-08-20T00:50:01.110Z,55.0
2022-08-20T00:55:01.191Z,53.7
2022-08-20T01:00:01.124Z,52.2
2022-08-20T01:05:01.549Z,52.4
2022-08-20T01:10:01.110Z,52.7
2022-08-20T01:15:01.245Z,52.2
2022-08-20T01:25:01.251Z,51.3
2022-08-20T01:30:01.115Z,51.1
2022-08-20T01:35:01.189Z,56.6
2022-08-20T01:40:01.194Z,56.3
2022-08-20T01:45:01.754Z,55.4
2022-08-20T01:55:01.207Z,56.9
2022-08-20T02:00:01.135Z,57.9
2022-08-20T02:05:01.212Z,52.6
2022-08-20T02:10:01.133Z,53.1
2022-08-20T02:15:02.171Z,53.3
2022-08-20T02:20:01.145Z,53.0
2022-08-20T02:25:01.199Z,53.3
2022-08-20T02:30:01.133Z,54.8
2022-08-20T02:35:01.642Z,55.7
2022-08-20T02:40:01.158Z,56.2
2022-08-20T02:50:01.228Z,58.0
2022-08-20T02:55:01.160Z,58.4
2022-08-20T03:00:01.405Z,58.0
2022-08-20T03:05:01.224Z,59.0
2022-08-20T03:10:01.099Z,58.3
2022-08-20T03:15:01.226Z,57.2
2022-08-20T03:20:01.096Z,56.8
2022-08-20T03:25:01.157Z,57.1
2022-08-20T03:30:01.093Z,58.5
2022-08-20T03:35:01.159Z,58.4
2022-08-20T03:40:01.178Z,57.9
2022-08-20T03:45:01.218Z,58.0
2022-08-20T03:50:01.093Z,57.8
2022-08-20T04:00:01.214Z,56.2
2022-08-20T04:05:01.163Z,57.6
2022-08-20T04:10:01.097Z,58.8
2022-08-20T04:15:01.984Z,62.9
2022-08-20T04:20:01.115Z,64.3
2022-08-20T04:30:01.168Z,65.0
2022-08-20T04:35:01.173Z,65.6
2022-08-20T04:40:01.226Z,66.6
2022-08-20T04:45:01.251Z,64.1
2022-08-20T04:50:01.136Z,64.4
2022-08-20T04:55:01.200Z,65.3
2022-08-20T05:00:01.147Z,66.2
2022-08-20T05:05:01.202Z,66.1
2022-08-20T05:10:01.146Z,65.3
2022-08-20T05:15:01.190Z,65.0
2022-08-20T05:20:01.433Z,64.2
2022-08-20T05:25:01.244Z,63.5
2022-08-20T05:30:01.117Z,64.1
2022-08-20T05:35:01.237Z,64.5
2022-08-20T05:40:01.155Z,64.7
2022-08-20T05:45:01.179Z,64.8
2022-08-20T05:50:01.123Z,64.6
2022-08-20T05:55:01.192Z,63.6
2022-08-20T06:00:01.137Z,63.6
2022-08-20T06:05:01.264Z,63.4
2022-08-20T06:10:01.129Z,62.3
2022-08-20T06:15:01.333Z,61.9
2022-08-20T06:20:01.219Z,60.8
2022-08-20T06:25:01.280Z,59.9
2022-08-20T06:30:01.193Z,59.2
2022-08-20T06:35:01.229Z,59.6
2022-08-20T06:40:01.224Z,59.4
2022-08-20T06:45:01.307Z,60.4
2022-08-20T06:55:01.320Z,60.0
2022-08-20T07:00:01.190Z,59.7
2022-08-20T07:05:01.260Z,58.9
2022-08-20T07:10:01.209Z,58.7
2022-08-20T07:15:01.332Z,58.8
2022-08-20T07:20:01.208Z,59.5
2022-08-20T07:25:01.277Z,59.4
2022-08-20T07:30:01.213Z,60.0
2022-08-20T07:35:01.285Z,59.0
2022-08-20T07:40:01.340Z,59.7
2022-08-20T07:50:01.215Z,58.8
2022-08-20T07:55:01.190Z,58.5
2022-08-20T08:00:01.130Z,57.1
2022-08-20T08:05:01.174Z,56.2
2022-08-20T08:10:01.093Z,54.3
2022-08-20T08:15:01.209Z,53.6
2022-08-20T08:20:01.129Z,53.4
2022-08-20T08:25:01.266Z,54.2
2022-08-20T08:30:01.145Z,55.2
2022-08-20T08:35:01.195Z,55.8
2022-08-20T08:40:02.154Z,56.5
2022-08-20T08:45:01.171Z,56.4
2022-08-20T09:05:01.246Z,56.4
2022-08-20T09:10:01.108Z,56.2
2022-08-20T09:15:01.236Z,57.4
2022-08-20T09:20:01.108Z,58.6
2022-08-20T09:25:01.173Z,59.5
2022-08-20T09:35:01.244Z,60.6
2022-08-20T09:40:01.151Z,62.2
2022-08-20T09:45:01.257Z,62.4
2022-08-20T09:50:01.131Z,62.3
2022-08-20T09:55:01.192Z,63.6
2022-08-20T10:00:01.127Z,64.0
2022-08-20T10:05:01.195Z,64.7
2022-08-20T10:10:01.136Z,65.5
2022-08-20T10:15:01.252Z,66.0
2022-08-20T10:25:01.198Z,65.4
2022-08-20T10:30:01.136Z,66.0
2022-08-20T10:35:01.292Z,65.9
2022-08-20T10:40:01.189Z,65.5
2022-08-20T10:45:01.293Z,65.4
2022-08-20T10:55:01.235Z,65.5
2022-08-20T11:00:01.176Z,65.1
2022-08-20T11:05:01.332Z,65.2
2022-08-20T11:10:01.186Z,65.1
2022-08-20T11:15:01.405Z,65.2
2022-08-20T11:20:02.217Z,65.0
2022-08-20T11:25:01.264Z,65.3
2022-08-20T11:30:01.197Z,65.0
2022-08-20T11:45:01.269Z,65.1
2022-08-20T11:50:01.277Z,65.3
2022-08-20T11:55:01.281Z,64.9
2022-08-20T12:00:01.215Z,64.9
2022-08-20T12:10:01.291Z,65.0
2022-08-20T12:15:01.292Z,65.0
2022-08-20T12:25:01.302Z,65.4
2022-08-20T12:30:01.237Z,65.6
2022-08-20T12:35:01.251Z,65.4
2022-08-20T12:45:01.245Z,65.7
2022-08-20T12:50:01.147Z,65.5
2022-08-20T12:55:01.216Z,65.3
2022-08-20T13:00:01.070Z,65.6
2022-08-20T13:10:01.110Z,65.7
2022-08-20T13:15:01.162Z,66.3
2022-08-20T13:20:01.014Z,66.2
2022-08-20T13:25:01.154Z,66.4
2022-08-20T13:30:01.089Z,66.3
2022-08-20T13:35:01.162Z,66.6
2022-08-20T13:40:01.183Z,66.0
2022-08-20T13:45:01.179Z,66.4
2022-08-20T13:50:01.144Z,66.6
2022-08-20T13:55:06.505Z,67.0
2022-08-20T14:05:01.187Z,67.1
2022-08-20T14:10:01.518Z,67.8
2022-08-20T14:15:01.185Z,67.9
2022-08-20T14:20:01.881Z,68.0
2022-08-20T14:25:01.245Z,67.9
2022-08-20T14:30:06.115Z,67.6
2022-08-20T14:35:01.255Z,67.2
2022-08-20T14:40:01.220Z,66.4
2022-08-20T14:45:01.179Z,66.3
2022-08-20T14:50:01.112Z,65.7
2022-08-20T14:55:01.183Z,65.4
2022-08-20T15:00:01.112Z,64.4
2022-08-20T15:05:01.262Z,64.5
2022-08-20T15:10:01.149Z,63.7
2022-08-20T15:15:05.898Z,63.5
2022-08-20T15:30:01.313Z,63.7
2022-08-20T15:35:01.265Z,63.5
2022-08-20T15:40:01.244Z,65.0
2022-08-20T15:45:01.270Z,64.9
2022-08-20T15:50:01.243Z,64.6
2022-08-20T16:05:01.803Z,62.0
2022-08-20T16:25:01.201Z,64.0
2022-08-20T16:30:00.993Z,63.9
2022-08-20T16:35:01.085Z,63.6
2022-08-20T16:40:01.115Z,63.7
2022-08-20T16:55:01.417Z,65.0
2022-08-20T17:00:01.471Z,65.2
2022-08-20T17:05:01.516Z,66.1
2022-08-20T17:10:01.385Z,66.3
2022-08-20T17:15:01.520Z,66.1
2022-08-20T17:20:01.374Z,65.8
2022-08-20T17:30:01.503Z,65.2
2022-08-20T17:35:01.430Z,64.3
2022-08-20T17:40:01.396Z,63.0
2022-08-20T17:55:01.209Z,57.8
2022-08-20T18:00:02.253Z,56.9
2022-08-20T18:05:01.140Z,57.1
2022-08-20T18:10:01.077Z,57.2
2022-08-20T18:15:01.206Z,57.8
2022-08-20T18:20:01.150Z,59.9
2022-08-20T18:25:01.210Z,60.4
2022-08-20T18:30:01.081Z,60.8
2022-08-20T18:35:03.894Z,60.3
2022-08-20T18:40:01.162Z,60.0
2022-08-20T18:45:01.267Z,57.9
2022-08-20T18:50:01.132Z,57.4
2022-08-20T19:05:02.611Z,55.2
2022-08-20T19:10:00.731Z,53.9
2022-08-20T19:25:01.115Z,49.2
2022-08-20T19:30:01.017Z,51.3
2022-08-20T19:35:01.154Z,51.1
2022-08-20T19:40:01.022Z,50.6
2022-08-20T19:45:01.076Z,49.1
2022-08-20T19:50:01.007Z,47.3
2022-08-20T20:05:01.719Z,46.6
2022-08-20T20:10:01.643Z,47.1
2022-08-20T20:15:01.695Z,46.9
2022-08-20T20:20:01.563Z,48.0
2022-08-20T20:35:01.202Z,47.0
2022-08-20T20:40:01.090Z,49.3
2022-08-20T20:45:01.078Z,48.7
2022-08-20T20:50:01.022Z,48.9
2022-08-20T20:55:01.050Z,49.7
2022-08-20T21:00:01.030Z,52.0
2022-08-20T21:05:01.156Z,52.3
2022-08-20T21:10:01.166Z,53.9
2022-08-20T21:15:01.148Z,55.7
2022-08-20T21:20:01.022Z,55.5
2022-08-20T21:25:01.130Z,54.7
2022-08-20T21:30:01.102Z,54.5
2022-08-20T21:35:01.179Z,54.1
2022-08-20T21:40:01.064Z,53.9
2022-08-20T21:45:01.140Z,57.2
2022-08-20T21:50:01.065Z,57.6
2022-08-20T21:55:01.197Z,58.2
2022-08-20T22:00:01.067Z,60.0
2022-08-20T22:05:01.088Z,59.9
2022-08-20T22:10:01.066Z,58.0
2022-08-20T22:15:01.273Z,58.9
2022-08-20T22:20:01.040Z,60.6
2022-08-20T22:25:02.024Z,59.6
2022-08-20T22:30:00.989Z,59.5
2022-08-20T22:40:01.068Z,59.4
2022-08-20T22:45:01.086Z,58.4
2022-08-20T22:50:01.013Z,58.1
2022-08-20T22:55:01.011Z,58.8
2022-08-20T23:00:00.944Z,59.6
2022-08-20T23:05:01.011Z,60.1
2022-08-20T23:10:00.936Z,60.6
2022-08-20T23:15:00.997Z,61.8
2022-08-20T23:20:00.924Z,62.2
2022-08-20T23:25:01.040Z,61.2
2022-08-20T23:30:01.093Z,60.5
2022-08-20T23:40:01.160Z,65.0
2022-08-20T23:45:01.095Z,64.6
2022-08-20T23:50:00.970Z,66.0
2022-08-20T23:55:01.157Z,66.8
